createdAt,value
2023-07-21T00:00:02.186Z,2.38
2023-07-21T00:02:31.792Z,2.47
2023-07-21T00:04:59.025Z,2.50
2023-07-21T00:07:25.914Z,2.70
2023-07-21T00:09:53.471Z,2.40
2023-07-21T00:12:20.335Z,2.17
2023-07-21T00:14:47.098Z,2.45
2023-07-21T00:17:13.856Z,2.47
2023-07-21T00:19:40.657Z,2.20
2023-07-21T00:22:08.579Z,2.30
2023-07-21T00:24:35.449Z,2.40
2023-07-21T00:27:03.385Z,2.40
2023-07-21T00:29:30.696Z,2.20
2023-07-21T00:31:57.512Z,2.35
2023-07-21T00:34:26.072Z,2.50
2023-07-21T00:36:56.787Z,2.70
2023-07-21T00:39:23.730Z,2.38
2023-07-21T00:41:50.715Z,2.50
2023-07-21T00:44:17.602Z,2.20
2023-07-21T00:46:44.707Z,2.45
2023-07-21T00:49:11.673Z,2.30
2023-07-21T00:51:38.680Z,2.22
2023-07-21T00:54:05.669Z,2.00
2023-07-21T00:56:33.577Z,2.47
2023-07-21T00:59:01.787Z,2.10
2023-07-21T01:01:28.895Z,2.40
2023-07-21T01:03:56.235Z,2.22
2023-07-21T01:08:59.373Z,2.08
2023-07-21T01:11:26.782Z,2.22
2023-07-21T01:13:57.550Z,2.60
2023-07-21T01:16:25.957Z,2.03
2023-07-21T01:18:54.509Z,2.00
2023-07-21T01:21:36.920Z,1.90
2023-07-21T01:24:16.191Z,1.95
2023-07-21T01:26:44.216Z,2.00
2023-07-21T01:29:11.812Z,2.22
2023-07-21T01:31:41.292Z,2.25
2023-07-21T01:34:11.013Z,2.30
2023-07-21T01:36:39.411Z,2.65
2023-07-21T01:39:07.692Z,2.83
2023-07-21T01:41:35.967Z,2.85
2023-07-21T01:44:02.868Z,2.85
2023-07-21T01:46:29.759Z,2.80
2023-07-21T01:48:56.695Z,3.10
2023-07-21T01:51:25.880Z,2.90
2023-07-21T01:53:58.058Z,2.65
2023-07-21T01:56:45.906Z,2.75
2023-07-21T01:59:13.859Z,2.85
2023-07-21T02:01:41.540Z,3.03
2023-07-21T02:04:08.696Z,2.63
2023-07-21T02:06:35.720Z,3.05
2023-07-21T02:09:04.468Z,2.60
2023-07-21T02:11:31.710Z,2.58
2023-07-21T02:14:17.397Z,2.63
2023-07-21T02:16:44.320Z,2.70
2023-07-21T02:19:11.140Z,2.58
2023-07-21T02:21:37.906Z,2.35
2023-07-21T02:24:05.030Z,2.22
2023-07-21T02:26:31.929Z,2.42
2023-07-21T02:28:58.669Z,1.92
2023-07-21T02:31:26.155Z,2.20
2023-07-21T02:33:53.020Z,2.40
2023-07-21T02:36:19.841Z,2.28
2023-07-21T02:38:46.615Z,2.08
2023-07-21T02:41:13.420Z,2.60
2023-07-21T02:43:40.358Z,2.60
2023-07-21T02:46:07.256Z,2.80
2023-07-21T02:48:35.451Z,2.22
2023-07-21T02:51:03.231Z,2.70
2023-07-21T02:53:36.044Z,3.05
2023-07-21T02:56:07.316Z,2.90
2023-07-21T02:58:54.256Z,2.75
2023-07-21T03:01:21.696Z,2.65
2023-07-21T03:03:49.153Z,3.08
2023-07-21T03:06:16.872Z,2.80
2023-07-21T03:08:44.018Z,2.47
2023-07-21T03:11:15.312Z,2.90
2023-07-21T03:14:00.183Z,3.00
2023-07-21T03:16:29.012Z,2.88
2023-07-21T03:18:56.772Z,2.60
2023-07-21T03:21:23.589Z,2.53
2023-07-21T03:23:51.432Z,2.70
2023-07-21T03:26:24.169Z,2.60
2023-07-21T03:28:52.597Z,3.05
2023-07-21T03:31:20.874Z,2.40
2023-07-21T03:33:56.603Z,2.83
2023-07-21T03:36:26.583Z,2.70
2023-07-21T03:38:53.883Z,2.60
2023-07-21T03:41:22.040Z,2.70
2023-07-21T03:43:50.779Z,2.53
2023-07-21T03:49:08.619Z,2.40
2023-07-21T03:51:40.385Z,2.60
2023-07-21T03:54:10.644Z,3.00
2023-07-21T03:56:37.973Z,2.83
2023-07-21T03:59:04.810Z,2.75
2023-07-21T04:01:32.003Z,2.75
2023-07-21T04:03:58.909Z,2.70
2023-07-21T04:06:26.257Z,3.00
2023-07-21T04:08:55.119Z,2.90
2023-07-21T04:11:22.296Z,2.88
2023-07-21T04:13:49.149Z,2.45
2023-07-21T04:16:16.031Z,2.97
2023-07-21T04:18:42.852Z,2.78
2023-07-21T04:21:09.613Z,3.10
2023-07-21T04:23:36.529Z,2.97
2023-07-21T04:26:05.621Z,3.00
2023-07-21T04:28:33.623Z,3.03
2023-07-21T04:33:32.803Z,3.30
2023-07-21T04:36:05.390Z,3.17
2023-07-21T04:38:32.677Z,3.20
2023-07-21T04:41:07.750Z,3.30
2023-07-21T04:43:35.696Z,3.42
2023-07-21T04:46:02.487Z,3.00
2023-07-21T04:48:35.681Z,3.13
2023-07-21T04:51:05.123Z,3.42
2023-07-21T04:53:32.152Z,3.28
2023-07-21T04:55:59.455Z,3.08
2023-07-21T04:58:30.101Z,3.15
2023-07-21T05:00:57.068Z,2.90
2023-07-21T05:03:24.392Z,3.55
2023-07-21T05:05:51.306Z,3.03
2023-07-21T05:08:21.312Z,2.97
2023-07-21T05:10:48.582Z,2.80
2023-07-21T05:13:17.294Z,3.20
2023-07-21T05:15:55.972Z,3.10
2023-07-21T05:18:42.945Z,2.78
2023-07-21T05:21:47.002Z,2.97
2023-07-21T05:24:34.092Z,3.13
2023-07-21T05:27:01.182Z,2.90
2023-07-21T05:29:42.044Z,2.80
2023-07-21T05:32:09.743Z,2.97
2023-07-21T05:34:37.494Z,2.90
2023-07-21T05:37:06.768Z,2.67
2023-07-21T05:39:33.700Z,2.50
2023-07-21T05:42:01.958Z,2.45
2023-07-21T05:44:34.433Z,2.63
2023-07-21T05:47:02.231Z,2.60
2023-07-21T05:49:29.142Z,2.50
2023-07-21T05:51:57.234Z,2.33
2023-07-21T05:54:30.157Z,2.50
2023-07-21T05:56:57.785Z,2.08
2023-07-21T05:59:28.344Z,2.30
2023-07-21T06:02:01.987Z,2.33
2023-07-21T06:04:33.952Z,1.92
2023-07-21T06:07:32.985Z,2.15
2023-07-21T06:10:20.083Z,2.15
2023-07-21T06:12:56.635Z,2.05
2023-07-21T06:15:38.630Z,2.15
2023-07-21T06:18:17.101Z,2.10
2023-07-21T06:20:44.587Z,1.75
2023-07-21T06:23:11.352Z,1.80
2023-07-21T06:25:39.703Z,1.73
2023-07-21T06:28:09.987Z,1.77
2023-07-21T06:30:37.115Z,1.70
2023-07-21T06:33:07.693Z,2.10
2023-07-21T06:35:37.977Z,2.00
2023-07-21T06:38:16.067Z,2.28
2023-07-21T06:41:06.194Z,1.98
2023-07-21T06:43:53.377Z,1.95
2023-07-21T06:46:25.243Z,1.92
2023-07-21T06:49:15.812Z,2.08
2023-07-21T06:51:51.897Z,2.00
2023-07-21T06:54:18.937Z,2.08
2023-07-21T06:56:53.754Z,1.80
2023-07-21T06:59:21.098Z,1.70
2023-07-21T07:01:48.005Z,1.70
2023-07-21T07:04:14.832Z,1.85
2023-07-21T07:06:42.390Z,1.50
2023-07-21T07:09:09.780Z,2.00
2023-07-21T07:11:36.570Z,1.58
2023-07-21T07:14:03.344Z,1.90
2023-07-21T07:16:31.958Z,1.30
2023-07-21T07:18:58.734Z,1.20
2023-07-21T07:21:26.182Z,1.90
2023-07-21T07:23:53.288Z,1.40
2023-07-21T07:26:22.834Z,1.30
2023-07-21T07:28:49.651Z,1.45
2023-07-21T07:31:16.574Z,1.20
2023-07-21T07:33:45.886Z,1.20
2023-07-21T07:36:13.117Z,1.13
2023-07-21T07:38:40.020Z,1.17
2023-07-21T07:41:10.510Z,1.17
2023-07-21T07:43:38.194Z,1.23
2023-07-21T07:46:08.806Z,1.23
2023-07-21T07:48:36.395Z,1.50
2023-07-21T07:51:08.391Z,1.30
2023-07-21T07:53:36.555Z,1.40
2023-07-21T07:56:04.627Z,1.30
2023-07-21T07:58:32.897Z,1.20
2023-07-21T08:03:31.421Z,1.48
2023-07-21T08:06:00.074Z,1.10
2023-07-21T08:08:27.654Z,1.40
2023-07-21T08:10:54.570Z,1.35
2023-07-21T08:13:22.866Z,1.20
2023-07-21T08:15:49.768Z,1.25
2023-07-21T08:18:16.738Z,1.40
2023-07-21T08:20:44.609Z,1.40
2023-07-21T08:23:27.222Z,1.20
2023-07-21T08:25:58.224Z,1.20
2023-07-21T08:28:25.210Z,1.00
2023-07-21T08:30:58.767Z,1.05
2023-07-21T08:33:27.080Z,1.00
2023-07-21T08:35:54.122Z,1.10
2023-07-21T08:38:20.901Z,0.90
2023-07-21T08:40:51.552Z,1.17
2023-07-21T08:43:18.402Z,1.20
2023-07-21T08:45:48.467Z,1.15
2023-07-21T08:48:18.674Z,1.10
2023-07-21T08:50:49.584Z,1.10
2023-07-21T08:53:16.624Z,1.20
2023-07-21T08:55:43.460Z,1.17
2023-07-21T08:58:11.394Z,1.38
2023-07-21T09:00:39.242Z,1.30
2023-07-21T09:03:06.153Z,1.20
2023-07-21T09:05:33.170Z,1.38
2023-07-21T09:08:00.679Z,1.20
2023-07-21T09:10:35.345Z,1.10
2023-07-21T09:13:02.719Z,1.20
2023-07-21T09:15:29.496Z,1.27
2023-07-21T09:17:56.753Z,1.08
2023-07-21T09:20:23.748Z,1.20
2023-07-21T09:22:50.990Z,1.20
2023-07-21T09:25:23.332Z,1.20
2023-07-21T09:27:55.354Z,1.20
2023-07-21T09:30:22.221Z,1.20
2023-07-21T09:32:55.055Z,1.02
2023-07-21T09:35:22.695Z,1.02
2023-07-21T09:37:53.218Z,1.00
2023-07-21T09:40:29.425Z,1.23
2023-07-21T09:42:56.985Z,1.30
2023-07-21T09:45:25.274Z,1.10
2023-07-21T09:47:52.688Z,1.00
2023-07-21T09:50:19.660Z,0.98
2023-07-21T09:52:48.643Z,1.13
2023-07-21T09:55:18.296Z,1.00
2023-07-21T09:57:47.902Z,1.00
2023-07-21T10:00:17.899Z,1.13
2023-07-21T10:02:48.221Z,1.10
2023-07-21T10:05:15.925Z,1.08
2023-07-21T10:07:47.149Z,1.10
2023-07-21T10:10:14.997Z,0.90
2023-07-21T10:12:54.011Z,0.93
2023-07-21T10:15:32.956Z,0.90
2023-07-21T10:18:01.070Z,0.98
2023-07-21T10:20:39.183Z,1.00
2023-07-21T10:23:07.016Z,1.10
2023-07-21T10:25:52.356Z,0.90
2023-07-21T10:28:35.629Z,0.90
2023-07-21T10:31:28.942Z,1.10
2023-07-21T10:34:07.730Z,1.00
2023-07-21T10:36:42.301Z,1.00
2023-07-21T10:39:12.900Z,1.00
2023-07-21T10:41:40.422Z,0.90
2023-07-21T10:44:11.378Z,1.00
2023-07-21T10:46:40.184Z,1.00
2023-07-21T10:49:10.274Z,1.17
2023-07-21T10:51:40.692Z,1.13
2023-07-21T10:54:08.146Z,0.90
2023-07-21T10:56:43.096Z,0.98
2023-07-21T10:59:13.178Z,0.90
2023-07-21T11:01:45.960Z,0.93
2023-07-21T11:04:15.326Z,1.00
2023-07-21T11:06:43.737Z,1.05
2023-07-21T11:09:13.106Z,1.17
2023-07-21T11:11:41.960Z,0.90
2023-07-21T11:14:13.381Z,1.00
2023-07-21T11:17:03.710Z,1.02
2023-07-21T11:19:36.141Z,1.20
2023-07-21T11:22:05.158Z,1.08
2023-07-21T11:24:34.051Z,1.20
2023-07-21T11:27:09.356Z,1.20
2023-07-21T11:29:40.146Z,1.30
2023-07-21T11:32:27.644Z,1.30
2023-07-21T11:35:04.134Z,1.02
2023-07-21T11:37:45.980Z,1.23
2023-07-21T11:40:23.770Z,1.45
2023-07-21T11:42:50.802Z,1.95
2023-07-21T11:45:36.658Z,1.35
2023-07-21T11:48:14.197Z,1.60
2023-07-21T11:50:43.085Z,1.52
2023-07-21T11:53:10.192Z,1.30
2023-07-21T11:55:37.688Z,1.30
2023-07-21T11:58:04.539Z,1.40
2023-07-21T12:00:33.234Z,1.33
2023-07-21T12:03:00.975Z,1.20
2023-07-21T12:05:27.880Z,1.20
2023-07-21T12:07:54.664Z,1.30
2023-07-21T12:10:23.451Z,1.30
2023-07-21T12:12:51.750Z,1.30
2023-07-21T12:17:46.711Z,1.23
2023-07-21T12:20:13.759Z,1.20
2023-07-21T12:25:10.322Z,1.20
2023-07-21T12:27:38.133Z,1.58
2023-07-21T12:30:09.620Z,1.30
2023-07-21T12:32:36.744Z,1.50
2023-07-21T12:35:06.251Z,1.38
2023-07-21T12:37:33.924Z,1.73
2023-07-21T12:40:01.391Z,1.30
2023-07-21T12:42:30.784Z,1.30
2023-07-21T12:44:57.682Z,1.20
2023-07-21T12:47:24.516Z,1.10
2023-07-21T12:49:51.386Z,1.27
2023-07-21T12:52:18.240Z,1.23
2023-07-21T12:54:47.041Z,1.00
2023-07-21T12:57:14.091Z,1.30
2023-07-21T12:59:40.979Z,1.20
2023-07-21T13:02:08.009Z,1.27
2023-07-21T13:04:35.920Z,1.05
2023-07-21T13:07:08.892Z,1.00
2023-07-21T13:09:36.335Z,1.20
2023-07-21T13:12:03.626Z,1.30
2023-07-21T13:14:30.566Z,1.40
2023-07-21T13:16:57.702Z,1.30
2023-07-21T13:19:24.738Z,1.20
2023-07-21T13:21:51.962Z,1.20
2023-07-21T13:24:18.854Z,1.13
2023-07-21T13:26:45.728Z,1.30
2023-07-21T13:29:13.021Z,1.40
2023-07-21T13:31:39.999Z,1.30
2023-07-21T13:34:06.873Z,1.08
2023-07-21T13:36:33.636Z,1.33
2023-07-21T13:39:00.389Z,1.25
2023-07-21T13:41:27.195Z,1.30
2023-07-21T13:43:54.895Z,1.15
2023-07-21T13:46:24.706Z,1.40
2023-07-21T13:48:52.806Z,1.50
2023-07-21T13:51:20.423Z,1.63
2023-07-21T13:53:48.209Z,1.83
2023-07-21T13:56:15.485Z,1.50
2023-07-21T13:58:43.185Z,1.52
2023-07-21T14:01:10.941Z,1.95
2023-07-21T14:03:38.088Z,2.13
2023-07-21T14:06:06.746Z,2.10
2023-07-21T14:08:33.955Z,2.40
2023-07-21T14:11:01.315Z,2.75
2023-07-21T14:13:28.153Z,2.67
2023-07-21T14:15:55.001Z,3.35
2023-07-21T14:18:24.110Z,3.63
2023-07-21T14:20:51.091Z,2.97
2023-07-21T14:23:18.075Z,3.45
2023-07-21T14:25:45.067Z,3.58
2023-07-21T14:28:11.917Z,3.95
2023-07-21T14:30:38.800Z,3.92
2023-07-21T14:33:06.055Z,4.18
2023-07-21T14:35:32.968Z,4.30
2023-07-21T14:38:00.050Z,4.32
2023-07-21T14:40:27.006Z,4.65
2023-07-21T14:42:53.931Z,3.80
2023-07-21T14:45:20.771Z,3.90
2023-07-21T14:47:47.748Z,4.20
2023-07-21T14:50:14.596Z,4.18
2023-07-21T14:52:41.364Z,5.25
2023-07-21T14:55:10.655Z,4.82
2023-07-21T14:57:37.412Z,4.60
2023-07-21T15:00:10.434Z,5.00
2023-07-21T15:02:37.514Z,5.10
2023-07-21T15:05:04.486Z,5.50
2023-07-21T15:07:32.173Z,5.10
2023-07-21T15:09:59.396Z,5.50
2023-07-21T15:12:27.344Z,4.93
2023-07-21T15:14:54.138Z,5.38
2023-07-21T15:17:20.938Z,5.40
2023-07-21T15:19:47.721Z,4.95
2023-07-21T15:22:16.115Z,4.82
2023-07-21T15:24:44.777Z,4.90
2023-07-21T15:27:12.092Z,4.82
2023-07-21T15:29:38.860Z,4.53
2023-07-21T15:32:06.320Z,4.53
2023-07-21T15:34:33.304Z,4.82
2023-07-21T15:37:00.289Z,4.80
2023-07-21T15:39:27.075Z,5.00
2023-07-21T15:41:54.601Z,4.78
2023-07-21T15:44:21.394Z,5.15
2023-07-21T15:46:48.219Z,4.50
2023-07-21T15:49:15.112Z,5.03
2023-07-21T15:51:41.892Z,4.70
2023-07-21T15:54:17.337Z,4.88
2023-07-21T15:56:44.815Z,5.38
2023-07-21T15:59:11.644Z,4.65
2023-07-21T16:01:38.617Z,5.70
2023-07-21T16:04:06.123Z,4.57
2023-07-21T16:06:33.074Z,5.03
2023-07-21T16:08:59.843Z,5.72
2023-07-21T16:11:27.006Z,4.85
2023-07-21T16:13:54.051Z,5.47
2023-07-21T16:16:21.397Z,4.85
2023-07-21T16:18:50.174Z,5.13
2023-07-21T16:21:18.409Z,4.97
2023-07-21T16:26:16.106Z,5.13
2023-07-21T16:28:43.036Z,5.93
2023-07-21T16:31:09.807Z,5.63
2023-07-21T16:33:36.903Z,5.90
2023-07-21T16:36:05.171Z,6.40
2023-07-21T16:41:03.382Z,6.20
2023-07-21T16:43:30.439Z,5.93
2023-07-21T16:45:57.389Z,5.72
2023-07-21T16:48:24.346Z,6.05
2023-07-21T16:50:52.506Z,6.00
2023-07-21T16:53:20.714Z,5.63
2023-07-21T16:55:48.870Z,5.38
2023-07-21T16:58:19.072Z,5.47
2023-07-21T17:00:46.913Z,4.20
2023-07-21T17:03:14.955Z,3.92
2023-07-21T17:05:43.468Z,3.72
2023-07-21T17:10:37.361Z,3.15
2023-07-21T17:13:05.236Z,3.53
2023-07-21T17:15:32.610Z,3.65
2023-07-21T17:18:00.761Z,3.65
2023-07-21T17:20:28.005Z,3.38
2023-07-21T17:22:54.844Z,2.83
2023-07-21T17:25:21.704Z,3.80
2023-07-21T17:27:49.356Z,2.97
2023-07-21T17:30:16.317Z,3.30
2023-07-21T17:32:43.223Z,3.22
2023-07-21T17:35:10.596Z,3.00
2023-07-21T17:37:39.637Z,3.50
2023-07-21T17:40:11.639Z,3.20
2023-07-21T17:42:39.957Z,3.03
2023-07-21T17:47:34.228Z,3.05
2023-07-21T17:50:00.989Z,3.30
2023-07-21T17:52:27.860Z,3.35
2023-07-21T17:54:55.431Z,2.95
2023-07-21T17:57:22.723Z,3.15
2023-07-21T17:59:49.575Z,3.40
2023-07-21T18:02:16.349Z,2.88
2023-07-21T18:04:43.098Z,2.80
2023-07-21T18:07:09.986Z,2.92
2023-07-21T18:09:39.111Z,2.72
2023-07-21T18:12:07.324Z,2.80
2023-07-21T18:14:34.581Z,2.80
2023-07-21T18:17:01.384Z,2.80
2023-07-21T18:19:28.128Z,2.95
2023-07-21T18:21:55.534Z,2.90
2023-07-21T18:24:22.377Z,2.90
2023-07-21T18:26:49.161Z,2.83
2023-07-21T18:29:15.987Z,3.50
2023-07-21T18:31:42.778Z,3.08
2023-07-21T18:34:10.109Z,2.90
2023-07-21T18:36:36.906Z,2.80
2023-07-21T18:39:06.017Z,2.65
2023-07-21T18:41:32.847Z,3.20
2023-07-21T18:43:59.695Z,2.85
2023-07-21T18:46:26.555Z,3.08
2023-07-21T18:48:53.991Z,3.38
2023-07-21T18:51:21.996Z,2.80
2023-07-21T18:53:48.901Z,3.25
2023-07-21T18:56:15.747Z,3.20
2023-07-21T18:58:42.590Z,3.42
2023-07-21T19:01:09.425Z,3.10
2023-07-21T19:03:36.297Z,2.80
2023-07-21T19:06:07.345Z,3.10
2023-07-21T19:08:34.113Z,2.88
2023-07-21T19:11:00.917Z,3.10
2023-07-21T19:13:27.697Z,3.08
2023-07-21T19:15:54.482Z,2.95
2023-07-21T19:18:21.235Z,3.20
2023-07-21T19:20:47.999Z,3.00
2023-07-21T19:23:14.797Z,3.17
2023-07-21T19:25:50.363Z,2.97
2023-07-21T19:28:17.182Z,2.92
2023-07-21T19:30:43.961Z,3.33
2023-07-21T19:33:10.880Z,3.60
2023-07-21T19:35:37.727Z,3.20
2023-07-21T19:38:04.545Z,3.40
2023-07-21T19:40:31.287Z,2.85
2023-07-21T19:42:58.066Z,3.03
2023-07-21T19:45:24.877Z,3.53
2023-07-21T19:47:51.727Z,3.15
2023-07-21T19:50:18.612Z,3.00
2023-07-21T19:52:47.115Z,3.00
2023-07-21T19:55:14.905Z,3.00
2023-07-21T19:57:41.662Z,3.00
2023-07-21T20:00:11.862Z,3.60
2023-07-21T20:02:38.732Z,3.58
2023-07-21T20:05:06.336Z,3.30
2023-07-21T20:07:33.118Z,3.63
2023-07-21T20:09:59.882Z,4.07
2023-07-21T20:12:26.700Z,3.70
2023-07-21T20:14:54.861Z,4.70
2023-07-21T20:17:21.780Z,3.72
2023-07-21T20:19:50.300Z,3.78
2023-07-21T20:22:18.273Z,3.75
2023-07-21T20:24:45.329Z,4.10
2023-07-21T20:27:12.384Z,3.22
2023-07-21T20:29:39.230Z,3.95
2023-07-21T20:32:06.272Z,3.75
2023-07-21T20:34:33.077Z,3.60
2023-07-21T20:36:59.866Z,3.55
2023-07-21T20:39:27.041Z,3.90
2023-07-21T20:41:53.892Z,4.20
2023-07-21T20:44:21.089Z,3.92
2023-07-21T20:46:47.953Z,4.32
2023-07-21T20:49:14.782Z,4.20
2023-07-21T20:51:41.666Z,3.97
2023-07-21T20:54:08.741Z,4.55
2023-07-21T20:56:35.569Z,3.97
2023-07-21T20:59:02.363Z,4.07
2023-07-21T21:01:29.240Z,3.70
2023-07-21T21:03:56.119Z,4.05
2023-07-21T21:06:23.145Z,4.32
2023-07-21T21:08:50.180Z,3.80
2023-07-21T21:11:16.914Z,3.70
2023-07-21T21:13:43.697Z,3.45
2023-07-21T21:16:10.580Z,3.92
2023-07-21T21:18:37.403Z,3.88
2023-07-21T21:21:04.163Z,3.60
2023-07-21T21:23:31.000Z,3.58
2023-07-21T21:25:58.156Z,3.40
2023-07-21T21:28:25.321Z,3.53
2023-07-21T21:31:02.409Z,4.47
2023-07-21T21:33:29.848Z,3.70
2023-07-21T21:35:57.582Z,3.95
2023-07-21T21:38:25.136Z,3.97
2023-07-21T21:40:55.076Z,3.80
2023-07-21T21:43:22.290Z,3.80
2023-07-21T21:45:49.274Z,4.03
2023-07-21T21:48:16.191Z,3.40
2023-07-21T21:50:43.069Z,3.50
2023-07-21T21:53:09.832Z,3.55
2023-07-21T21:55:36.601Z,3.25
2023-07-21T21:58:03.392Z,3.67
2023-07-21T22:00:30.156Z,3.28
2023-07-21T22:02:57.054Z,3.30
2023-07-21T22:05:24.017Z,3.92
2023-07-21T22:07:50.816Z,3.28
2023-07-21T22:10:17.685Z,3.60
2023-07-21T22:12:44.456Z,3.60
2023-07-21T22:15:11.590Z,3.60
2023-07-21T22:17:38.429Z,3.28
2023-07-21T22:20:11.457Z,3.67
2023-07-21T22:22:39.109Z,3.88
2023-07-21T22:25:06.713Z,3.85
2023-07-21T22:27:33.949Z,3.95
2023-07-21T22:30:00.858Z,3.88
2023-07-21T22:32:27.778Z,4.25
2023-07-21T22:34:54.662Z,4.10
2023-07-21T22:37:21.443Z,3.50
2023-07-21T22:39:48.191Z,4.10
2023-07-21T22:42:14.976Z,4.32
2023-07-21T22:44:41.823Z,3.88
2023-07-21T22:47:09.376Z,3.95
2023-07-21T22:49:37.687Z,3.88
2023-07-21T22:52:04.902Z,3.80
2023-07-21T22:54:31.736Z,4.20
2023-07-21T22:56:58.548Z,4.05
2023-07-21T22:59:25.488Z,4.40
2023-07-21T23:01:52.773Z,4.65
2023-07-21T23:04:19.700Z,4.53
2023-07-21T23:06:47.637Z,4.35
2023-07-21T23:09:14.419Z,4.28
2023-07-21T23:11:41.228Z,4.18
2023-07-21T23:14:08.059Z,4.20
2023-07-21T23:16:34.864Z,4.50
2023-07-21T23:19:01.675Z,4.82
2023-07-21T23:21:28.470Z,5.28
2023-07-21T23:23:55.231Z,5.55
2023-07-21T23:26:22.029Z,5.05
2023-07-21T23:28:48.825Z,4.93
2023-07-21T23:31:15.805Z,5.38
2023-07-21T23:33:42.557Z,4.93
2023-07-21T23:36:09.461Z,5.65
2023-07-21T23:38:36.524Z,5.38
2023-07-21T23:41:03.363Z,5.07
2023-07-21T23:43:30.383Z,5.47
2023-07-21T23:45:59.494Z,5.20
2023-07-21T23:48:27.548Z,5.45
2023-07-21T23:50:54.304Z,5.65
2023-07-21T23:53:21.072Z,4.93
2023-07-21T23:55:47.905Z,5.13
2023-07-21T23:58:14.690Z,5.32
